Time,TemperatureF,DewpointF,PressureIn,WindDirection,WindDirectionDegrees,WindSpeedMPH,WindSpeedGustMPH,Humidity,HourlyPrecipIn,Conditions,Clouds,dailyrainin,SoftwareType,DateUTC
2013-05-21 00:01:00,72.0,62.0,29.89,North,357,0.0,0.0,71,0.00,,,0.00,VWS V14.00,2013-05-21 04:01:00,
2013-05-21 00:02:00,72.0,62.0,29.89,North,357,0.0,0.0,71,0.00,,,0.00,VWS V14.00,2013-05-21 04:02:00,
2013-05-21 00:04:00,72.0,62.0,29.89,North,357,0.0,0.0,71,0.00,,,0.00,VWS V14.00,2013-05-21 04:04:00,
2013-05-21 00:09:00,71.8,62.7,29.89,North,357,0.0,0.0,73,0.00,,,0.00,VWS V14.00,2013-05-21 04:09:00,
2013-05-21 00:14:00,71.8,62.7,29.89,North,357,0.0,0.0,73,0.00,,,0.00,VWS V14.00,2013-05-21 04:14:00,
2013-05-21 00:19:00,71.8,63.1,29.89,North,357,0.0,0.0,74,0.00,,,0.00,VWS V14.00,2013-05-21 04:19:00,
2013-05-21 00:25:00,71.6,63.3,29.89,North,357,0.0,0.0,75,0.00,,,0.00,VWS V14.00,2013-05-21 04:25:00,
2013-05-21 00:30:00,71.4,63.5,29.89,North,357,0.0,0.0,76,0.00,,,0.00,VWS V14.00,2013-05-21 04:30:00,
2013-05-21 00:35:00,71.2,63.3,29.89,North,357,0.0,0.0,76,0.00,,,0.00,VWS V14.00,2013-05-21 04:35:00,
2013-05-21 00:40:00,71.2,63.3,29.89,North,357,0.0,0.0,76,0.00,,,0.00,VWS V14.00,2013-05-21 04:40:00,
2013-05-21 00:45:00,71.1,63.5,29.89,North,357,0.0,0.0,77,0.00,,,0.00,VWS V14.00,2013-05-21 04:45:00,
2013-05-21 00:50:00,71.1,63.5,29.89,North,357,0.0,0.0,77,0.00,,,0.00,VWS V14.00,2013-05-21 04:50:00,
2013-05-21 00:55:00,70.9,63.3,29.89,North,357,0.0,0.0,77,0.00,,,0.00,VWS V14.00,2013-05-21 04:55:00,
2013-05-21 01:00:00,70.9,63.3,29.89,North,357,0.0,0.0,77,0.00,,,0.00,VWS V14.00,2013-05-21 05:00:00,
2013-05-21 01:05:00,70.9,63.3,29.89,North,357,0.0,0.0,77,0.00,,,0.00,VWS V14.00,2013-05-21 05:05:00,
2013-05-21 01:10:00,70.9,63.3,29.89,North,357,0.0,0.0,77,0.00,,,0.00,VWS V14.00,2013-05-21 05:10:00,
2013-05-21 01:15:00,70.7,63.1,29.89,North,357,0.0,0.0,77,0.00,,,0.00,VWS V14.00,2013-05-21 05:15:00,
2013-05-21 01:20:00,70.7,63.5,29.89,North,357,0.0,0.0,78,0.00,,,0.00,VWS V14.00,2013-05-21 05:20:00,
2013-05-21 01:25:00,70.9,64.4,29.89,North,357,0.0,0.0,80,0.00,,,0.00,VWS V14.00,2013-05-21 05:25:00,
2013-05-21 01:31:00,70.9,64.4,29.89,ESE,122,4.9,4.9,80,0.00,,,0.00,VWS V14.00,2013-05-21 05:31:00,
2013-05-21 01:36:00,71.1,64.9,29.89,WSW,242,2.7,4.0,81,0.00,,,0.00,VWS V14.00,2013-05-21 05:36:00,
2013-05-21 01:41:00,70.9,64.8,29.89,East,79,0.0,0.0,81,0.00,,,0.00,VWS V14.00,2013-05-21 05:41:00,
2013-05-21 01:46:00,70.9,64.8,29.89,East,79,0.0,0.0,81,0.00,,,0.00,VWS V14.00,2013-05-21 05:46:00,
2013-05-21 01:51:00,70.9,64.8,29.89,South,184,0.0,0.0,81,0.00,,,0.00,VWS V14.00,2013-05-21 05:51:00,
2013-05-21 01:56:00,70.9,64.8,29.89,South,184,0.0,0.0,81,0.00,,,0.00,VWS V14.00,2013-05-21 05:56:00,
2013-05-21 02:01:00,70.7,64.6,29.89,South,184,0.0,0.0,81,0.00,,,0.00,VWS V14.00,2013-05-21 06:01:00,
2013-05-21 02:06:00,70.7,64.6,29.89,South,184,0.0,0.0,81,0.00,,,0.00,VWS V14.00,2013-05-21 06:06:00,
2013-05-21 02:11:00,70.5,64.4,29.89,South,184,0.0,0.0,81,0.00,,,0.00,VWS V14.00,2013-05-21 06:11:00,
2013-05-21 02:16:00,70.5,64.4,29.89,South,184,0.0,0.0,81,0.00,,,0.00,VWS V14.00,2013-05-21 06:16:00,
2013-05-21 02:21:00,70.3,64.2,29.89,South,184,0.0,0.0,81,0.00,,,0.00,VWS V14.00,2013-05-21 06:21:00,
2013-05-21 02:26:00,70.3,64.2,29.89,South,184,0.0,0.0,81,0.00,,,0.00,VWS V14.00,2013-05-21 06:26:00,
2013-05-21 02:31:00,70.3,64.2,29.89,South,184,0.0,0.0,81,0.00,,,0.00,VWS V14.00,2013-05-21 06:31:00,
2013-05-21 02:36:00,70.2,64.1,29.89,South,184,0.0,0.0,81,0.00,,,0.00,VWS V14.00,2013-05-21 06:36:00,
2013-05-21 02:41:00,70.0,63.9,29.89,South,184,0.0,0.0,81,0.00,,,0.00,VWS V14.00,2013-05-21 06:41:00,
2013-05-21 02:47:00,70.0,63.9,29.89,South,184,0.0,0.0,81,0.00,,,0.00,VWS V14.00,2013-05-21 06:47:00,
2013-05-21 02:52:00,70.0,64.2,29.89,South,184,0.0,0.0,82,0.00,,,0.00,VWS V14.00,2013-05-21 06:52:00,
2013-05-21 02:57:00,70.0,64.2,29.89,South,184,0.0,0.0,82,0.00,,,0.00,VWS V14.00,2013-05-21 06:57:00,
2013-05-21 03:02:00,70.2,64.8,29.89,SW,215,0.0,0.0,83,0.00,,,0.00,VWS V14.00,2013-05-21 07:02:00,
2013-05-21 03:07:00,70.2,64.8,29.89,SW,215,0.0,0.0,83,0.00,,,0.00,VWS V14.00,2013-05-21 07:07:00,
2013-05-21 03:12:00,70.2,64.8,29.89,SW,215,0.0,0.0,83,0.00,,,0.00,VWS V14.00,2013-05-21 07:12:00,
2013-05-21 03:17:00,70.0,64.6,29.89,SW,215,0.0,0.0,83,0.00,,,0.00,VWS V14.00,2013-05-21 07:17:00,
2013-05-21 03:22:00,69.8,64.4,29.89,SW,215,0.0,0.0,83,0.00,,,0.00,VWS V14.00,2013-05-21 07:22:00,
2013-05-21 03:27:00,69.8,64.4,29.89,SW,215,0.0,0.0,83,0.00,,,0.00,VWS V14.00,2013-05-21 07:27:00,
2013-05-21 03:32:00,69.6,64.6,29.89,SW,215,0.0,0.0,84,0.00,,,0.00,VWS V14.00,2013-05-21 07:32:00,
2013-05-21 03:37:00,69.6,64.6,29.89,SW,215,0.0,0.0,84,0.00,,,0.00,VWS V14.00,2013-05-21 07:37:00,
2013-05-21 03:42:00,69.4,64.1,29.89,SW,215,0.0,0.0,83,0.00,,,0.00,VWS V14.00,2013-05-21 07:42:00,
2013-05-21 03:47:00,69.3,63.9,29.89,SW,215,0.0,0.0,83,0.00,,,0.00,VWS V14.00,2013-05-21 07:47:00,
2013-05-21 03:52:00,69.3,63.9,29.89,SW,215,0.0,0.0,83,0.00,,,0.00,VWS V14.00,2013-05-21 07:52:00,
2013-05-21 03:57:00,69.1,63.7,29.89,SW,215,0.0,0.0,83,0.00,,,0.00,VWS V14.00,2013-05-21 07:57:00,
2013-05-21 04:02:00,68.9,63.5,29.89,SW,215,0.0,0.0,83,0.00,,,0.00,VWS V14.00,2013-05-21 08:02:00,
2013-05-21 04:07:00,68.9,63.5,29.89,SW,215,0.0,0.0,83,0.00,,,0.00,VWS V14.00,2013-05-21 08:07:00,
2013-05-21 04:12:00,68.7,63.3,29.89,SW,215,0.0,0.0,83,0.00,,,0.00,VWS V14.00,2013-05-21 08:12:00,
2013-05-21 04:18:00,68.7,63.3,29.89,SW,215,0.0,0.0,83,0.00,,,0.00,VWS V14.00,2013-05-21 08:18:00,
2013-05-21 04:23:00,68.5,63.2,29.89,SW,215,0.0,0.0,83,0.00,,,0.00,VWS V14.00,2013-05-21 08:23:00,
2013-05-21 04:28:00,68.5,63.2,29.89,SW,215,0.0,0.0,83,0.00,,,0.00,VWS V14.00,2013-05-21 08:28:00,
2013-05-21 04:33:00,68.5,63.5,29.89,SW,215,0.0,0.0,84,0.00,,,0.00,VWS V14.00,2013-05-21 08:33:00,
2013-05-21 04:38:00,68.4,63.3,29.89,SW,215,0.0,0.0,84,0.00,,,0.00,VWS V14.00,2013-05-21 08:38:00,
2013-05-21 04:43:00,68.4,63.3,29.89,SW,215,0.0,0.0,84,0.00,,,0.00,VWS V14.00,2013-05-21 08:43:00,
2013-05-21 04:48:00,68.4,63.3,29.89,SW,215,0.0,0.0,84,0.00,,,0.00,VWS V14.00,2013-05-21 08:48:00,
2013-05-21 04:53:00,68.2,63.2,29.89,SW,215,0.0,0.0,84,0.00,,,0.00,VWS V14.00,2013-05-21 08:53:00,
2013-05-21 04:58:00,68.2,63.2,29.89,SW,215,0.0,0.0,84,0.00,,,0.00,VWS V14.00,2013-05-21 08:58:00,
2013-05-21 05:03:00,68.2,63.2,29.89,SW,215,0.0,0.0,84,0.00,,,0.00,VWS V14.00,2013-05-21 09:03:00,
2013-05-21 05:08:00,68.0,63.0,29.89,SW,215,0.0,0.0,84,0.00,,,0.00,VWS V14.00,2013-05-21 09:08:00,
2013-05-21 05:13:00,68.0,63.3,29.89,SW,215,0.0,0.0,85,0.00,,,0.00,VWS V14.00,2013-05-21 09:13:00,
2013-05-21 05:18:00,67.8,63.2,29.89,SW,215,0.0,0.0,85,0.00,,,0.00,VWS V14.00,2013-05-21 09:18:00,
2013-05-21 05:23:00,67.8,63.2,29.89,SW,215,0.0,0.0,85,0.00,,,0.00,VWS V14.00,2013-05-21 09:23:00,
2013-05-21 05:28:00,68.0,63.3,29.89,SW,215,0.0,0.0,85,0.00,,,0.00,VWS V14.00,2013-05-21 09:28:00,
2013-05-21 05:33:00,68.2,63.5,29.89,SW,215,0.0,0.0,85,0.00,,,0.00,VWS V14.00,2013-05-21 09:33:00,
2013-05-21 05:38:00,68.4,64.0,29.89,SW,215,0.0,0.0,86,0.00,,,0.00,VWS V14.00,2013-05-21 09:38:00,
2013-05-21 05:43:00,68.5,64.2,29.89,SW,215,0.0,0.0,86,0.00,,,0.00,VWS V14.00,2013-05-21 09:43:00,
2013-05-21 05:49:00,68.7,64.4,29.89,SW,215,0.0,0.0,86,0.00,,,0.00,VWS V14.00,2013-05-21 09:49:00,
2013-05-21 05:54:00,68.7,64.4,29.89,SW,215,0.0,0.0,86,0.00,,,0.00,VWS V14.00,2013-05-21 09:54:00,
2013-05-21 05:59:00,68.9,64.6,29.89,SW,215,0.0,0.0,86,0.00,,,0.00,VWS V14.00,2013-05-21 09:59:00,
2013-05-21 06:04:00,69.1,64.7,29.89,SW,215,0.0,0.0,86,0.00,,,0.00,VWS V14.00,2013-05-21 10:04:00,
2013-05-21 06:09:00,69.1,64.7,29.89,SW,215,0.0,0.0,86,0.00,,,0.00,VWS V14.00,2013-05-21 10:09:00,
2013-05-21 06:14:00,69.3,65.2,29.89,SW,215,0.0,0.0,87,0.00,,,0.00,VWS V14.00,2013-05-21 10:14:00,
2013-05-21 06:19:00,69.3,65.2,29.89,SW,215,0.0,0.0,87,0.00,,,0.00,VWS V14.00,2013-05-21 10:19:00,
2013-05-21 06:24:00,69.3,65.2,29.89,SW,215,0.0,0.0,87,0.00,,,0.00,VWS V14.00,2013-05-21 10:24:00,
2013-05-21 06:29:00,69.3,65.2,29.89,SW,215,0.0,0.0,87,0.00,,,0.00,VWS V14.00,2013-05-21 10:29:00,
2013-05-21 06:34:00,69.4,65.4,29.89,SW,215,0.0,0.0,87,0.00,,,0.00,VWS V14.00,2013-05-21 10:34:00,
2013-05-21 06:39:00,69.4,65.4,29.89,SW,215,0.0,0.0,87,0.00,,,0.00,VWS V14.00,2013-05-21 10:39:00,
2013-05-21 06:44:00,69.6,65.6,29.89,SW,215,0.0,0.0,87,0.00,,,0.00,VWS V14.00,2013-05-21 10:44:00,
2013-05-21 06:49:00,69.8,65.8,29.89,SW,215,0.0,0.0,87,0.00,,,0.00,VWS V14.00,2013-05-21 10:49:00,
2013-05-21 06:54:00,70.0,65.9,29.89,SW,215,0.0,0.0,87,0.00,,,0.00,VWS V14.00,2013-05-21 10:54:00,
2013-05-21 07:00:00,70.0,65.9,29.89,SW,215,0.0,0.0,87,0.00,,,0.00,VWS V14.00,2013-05-21 11:00:00,
2013-05-21 07:05:00,70.2,66.1,29.89,SW,215,0.0,0.0,87,0.00,,,0.00,VWS V14.00,2013-05-21 11:05:00,
2013-05-21 07:10:00,70.3,66.3,29.89,SW,215,0.0,0.0,87,0.00,,,0.00,VWS V14.00,2013-05-21 11:10:00,
2013-05-21 07:15:00,70.3,66.3,29.89,SW,215,0.0,0.0,87,0.00,,,0.00,VWS V14.00,2013-05-21 11:15:00,
2013-05-21 07:20:00,70.7,66.7,29.89,SW,215,0.0,0.0,87,0.00,,,0.00,VWS V14.00,2013-05-21 11:20:00,
2013-05-21 07:25:00,70.7,66.7,29.89,SW,215,0.0,0.0,87,0.00,,,0.00,VWS V14.00,2013-05-21 11:25:00,
2013-05-21 07:30:00,71.1,67.3,29.89,SW,216,0.0,0.0,88,0.00,,,0.00,VWS V14.00,2013-05-21 11:30:00,
2013-05-21 07:35:00,71.4,67.7,29.89,SW,215,0.0,0.0,88,0.00,,,0.00,VWS V14.00,2013-05-21 11:35:00,
2013-05-21 07:40:00,71.6,67.5,29.89,SW,215,0.0,0.0,87,0.00,,,0.00,VWS V14.00,2013-05-21 11:40:00,
2013-05-21 07:45:00,72.0,67.9,29.89,SW,215,0.0,0.0,87,0.00,,,0.00,VWS V14.00,2013-05-21 11:45:00,
2013-05-21 07:50:00,71.8,67.7,29.89,SW,215,0.0,0.0,87,0.00,,,0.00,VWS V14.00,2013-05-21 11:50:00,
2013-05-21 07:55:00,72.0,67.6,29.89,SW,215,0.0,0.0,86,0.00,,,0.00,VWS V14.00,2013-05-21 11:55:00,
2013-05-21 08:00:00,72.1,67.7,29.89,SW,215,0.0,0.0,86,0.00,,,0.00,VWS V14.00,2013-05-21 12:00:00,
2013-05-21 08:05:00,72.5,68.1,29.89,SW,215,0.0,0.0,86,0.00,,,0.00,VWS V14.00,2013-05-21 12:05:00,
2013-05-21 08:10:00,72.7,67.9,29.89,SW,215,0.0,0.0,85,0.00,,,0.00,VWS V14.00,2013-05-21 12:10:00,
2013-05-21 08:15:00,73.0,68.3,29.89,SW,215,0.0,0.0,85,0.00,,,0.00,VWS V14.00,2013-05-21 12:15:00,
2013-05-21 08:20:00,73.4,68.3,29.89,SW,215,2.2,2.2,84,0.00,,,0.00,VWS V14.00,2013-05-21 12:20:00,
2013-05-21 08:25:00,73.6,68.1,29.89,SE,132,0.0,4.0,83,0.00,,,0.00,VWS V14.00,2013-05-21 12:25:00,
2013-05-21 08:30:00,73.6,67.0,29.89,SE,136,0.0,0.0,80,0.00,,,0.00,VWS V14.00,2013-05-21 12:30:00,
2013-05-21 08:36:00,74.1,67.6,29.89,SE,136,2.7,2.7,80,0.00,,,0.00,VWS V14.00,2013-05-21 12:36:00,
2013-05-21 08:41:00,73.9,65.9,29.89,SW,217,0.0,4.0,76,0.00,,,0.00,VWS V14.00,2013-05-21 12:41:00,
2013-05-21 08:46:00,74.3,65.9,29.89,SW,217,0.0,0.0,75,0.00,,,0.00,VWS V14.00,2013-05-21 12:46:00,
2013-05-21 08:51:00,74.8,66.4,29.89,SW,217,0.0,0.0,75,0.00,,,0.00,VWS V14.00,2013-05-21 12:51:00,
2013-05-21 08:56:00,74.5,64.1,29.89,WSW,243,2.7,4.0,70,0.00,,,0.00,VWS V14.00,2013-05-21 12:56:00,
2013-05-21 09:01:00,74.7,64.2,29.89,WSW,243,0.0,0.0,70,0.00,,,0.00,VWS V14.00,2013-05-21 13:01:00,
2013-05-21 09:06:00,74.8,64.4,29.89,SE,138,2.7,3.1,70,0.00,,,0.00,VWS V14.00,2013-05-21 13:06:00,
2013-05-21 09:11:00,75.0,64.6,29.89,SSW,206,0.0,0.0,70,0.00,,,0.00,VWS V14.00,2013-05-21 13:11:00,
2013-05-21 09:16:00,75.2,63.5,29.89,WSW,243,0.0,3.1,67,0.00,,,0.00,VWS V14.00,2013-05-21 13:16:00,
2013-05-21 09:21:00,75.6,63.8,29.89,NW,319,0.0,2.2,67,0.00,,,0.00,VWS V14.00,2013-05-21 13:21:00,
2013-05-21 09:26:00,75.6,63.4,29.89,WNW,294,2.7,3.1,66,0.00,,,0.00,VWS V14.00,2013-05-21 13:26:00,
2013-05-21 09:31:00,75.7,63.6,29.89,North,353,4.0,4.9,66,0.00,,,0.00,VWS V14.00,2013-05-21 13:31:00,
2013-05-21 09:36:00,75.7,62.7,29.89,SW,226,0.0,0.0,64,0.00,,,0.00,VWS V14.00,2013-05-21 13:36:00,
2013-05-21 09:41:00,75.9,63.3,29.89,WSW,239,3.6,3.6,65,0.00,,,0.00,VWS V14.00,2013-05-21 13:41:00,
2013-05-21 09:46:00,76.5,63.8,29.89,WSW,239,0.0,0.0,65,0.00,,,0.00,VWS V14.00,2013-05-21 13:46:00,
2013-05-21 09:51:00,76.8,62.8,29.89,SE,126,0.0,3.6,62,0.00,,,0.00,VWS V14.00,2013-05-21 13:51:00,
2013-05-21 09:56:00,77.2,62.2,29.89,SSW,210,4.0,4.0,60,0.00,,,0.00,VWS V14.00,2013-05-21 13:56:00,
2013-05-21 10:02:00,77.7,62.7,29.89,WSW,239,3.1,4.9,60,0.00,,,0.00,VWS V14.00,2013-05-21 14:02:00,
2013-05-21 10:07:00,78.1,61.6,29.89,NNW,348,0.0,0.0,57,0.00,,,0.00,VWS V14.00,2013-05-21 14:07:00,
2013-05-21 10:12:00,78.3,61.8,29.89,SE,142,0.0,3.1,57,0.00,,,0.00,VWS V14.00,2013-05-21 14:12:00,
2013-05-21 10:17:00,78.8,60.8,29.89,WSW,254,2.7,3.1,54,0.00,,,0.00,VWS V14.00,2013-05-21 14:17:00,
2013-05-21 10:22:00,79.3,60.7,29.89,SSE,151,0.0,4.0,53,0.00,,,0.00,VWS V14.00,2013-05-21 14:22:00,
2013-05-21 10:27:00,79.7,60.5,29.89,South,180,2.2,4.0,52,0.00,,,0.00,VWS V14.00,2013-05-21 14:27:00,
2013-05-21 10:32:00,80.1,60.9,29.89,SSW,209,2.2,4.0,52,0.00,,,0.00,VWS V14.00,2013-05-21 14:32:00,
2013-05-21 10:37:00,80.6,59.7,29.89,SW,224,2.7,4.0,49,0.00,,,0.00,VWS V14.00,2013-05-21 14:37:00,
2013-05-21 10:42:00,81.1,58.4,29.89,North,1,0.0,7.6,46,0.00,,,0.00,VWS V14.00,2013-05-21 14:42:00,
2013-05-21 10:47:00,81.3,57.3,29.89,North,353,5.4,7.6,44,0.00,,,0.00,VWS V14.00,2013-05-21 14:47:00,
2013-05-21 10:52:00,81.5,57.5,29.89,North,9,3.6,5.4,44,0.00,,,0.00,VWS V14.00,2013-05-21 14:52:00,
2013-05-21 10:57:00,81.7,57.7,29.89,North,357,4.9,5.8,44,0.00,,,0.00,VWS V14.00,2013-05-21 14:57:00,
2013-05-21 11:02:00,82.4,58.3,29.89,WNW,288,3.1,3.1,44,0.00,,,0.00,VWS V14.00,2013-05-21 15:02:00,
2013-05-21 11:07:00,82.8,57.3,29.89,WSW,253,0.0,3.6,42,0.00,,,0.00,VWS V14.00,2013-05-21 15:07:00,
2013-05-21 11:12:00,83.1,57.7,29.89,North,8,2.7,4.0,42,0.00,,,0.00,VWS V14.00,2013-05-21 15:12:00,
2013-05-21 11:17:00,83.7,56.8,29.89,NW,319,2.7,3.6,40,0.00,,,0.00,VWS V14.00,2013-05-21 15:17:00,
2013-05-21 11:22:00,83.8,57.0,29.89,NNW,337,0.0,0.0,40,0.00,,,0.00,VWS V14.00,2013-05-21 15:22:00,
2013-05-21 11:28:00,84.0,56.4,29.89,SSW,203,0.0,3.6,39,0.00,,,0.00,VWS V14.00,2013-05-21 15:28:00,
2013-05-21 11:33:00,84.4,56.0,29.89,NNW,333,3.1,4.0,38,0.00,,,0.00,VWS V14.00,2013-05-21 15:33:00,
2013-05-21 11:38:00,85.1,55.9,29.89,WSW,254,2.7,4.0,37,0.00,,,0.00,VWS V14.00,2013-05-21 15:38:00,
2013-05-21 11:43:00,85.5,56.2,29.89,WSW,238,3.6,3.6,37,0.00,,,0.00,VWS V14.00,2013-05-21 15:43:00,
2013-05-21 11:48:00,86.4,53.9,29.89,NW,314,2.7,3.6,33,0.00,,,0.00,VWS V14.00,2013-05-21 15:48:00,
2013-05-21 11:53:00,86.9,54.4,29.89,SW,221,3.1,3.6,33,0.00,,,0.00,VWS V14.00,2013-05-21 15:53:00,
2013-05-21 11:58:00,87.1,53.7,29.89,SW,219,2.2,4.9,32,0.00,,,0.00,VWS V14.00,2013-05-21 15:58:00,
2013-05-21 12:03:00,88.2,54.6,29.89,SW,229,0.0,3.1,32,0.00,,,0.00,VWS V14.00,2013-05-21 16:03:00,
2013-05-21 12:08:00,88.0,52.7,29.89,North,357,0.0,3.1,30,0.00,,,0.00,VWS V14.00,2013-05-21 16:08:00,
2013-05-21 12:13:00,87.6,52.4,29.89,WNW,283,0.0,2.2,30,0.00,,,0.00,VWS V14.00,2013-05-21 16:13:00,
2013-05-21 12:18:00,87.3,53.0,29.89,NNW,338,0.0,0.0,31,0.00,,,0.00,VWS V14.00,2013-05-21 16:18:00,
2013-05-21 12:23:00,87.6,54.2,29.89,North,353,0.0,0.0,32,0.00,,,0.00,VWS V14.00,2013-05-21 16:23:00,
2013-05-21 12:28:00,87.6,54.2,29.89,North,353,2.7,2.7,32,0.00,,,0.00,VWS V14.00,2013-05-21 16:28:00,
2013-05-21 12:33:00,87.6,53.3,29.89,NNW,340,0.0,2.7,31,0.00,,,0.00,VWS V14.00,2013-05-21 16:33:00,
2013-05-21 12:38:00,86.7,52.5,29.89,SSW,202,2.7,4.0,31,0.00,,,0.00,VWS V14.00,2013-05-21 16:38:00,
2013-05-21 12:43:00,87.3,53.8,29.89,NNW,332,3.6,3.6,32,0.00,,,0.00,VWS V14.00,2013-05-21 16:43:00,
2013-05-21 12:48:00,88.2,51.9,29.89,NNW,330,4.0,4.0,29,0.00,,,0.00,VWS V14.00,2013-05-21 16:48:00,
2013-05-21 12:54:00,88.0,52.7,29.89,WSW,239,0.0,4.5,30,0.00,,,0.00,VWS V14.00,2013-05-21 16:54:00,
2013-05-21 12:59:00,88.7,52.4,29.89,WSW,248,0.0,2.2,29,0.00,,,0.00,VWS V14.00,2013-05-21 16:59:00,
2013-05-21 13:04:00,89.2,52.9,29.89,WSW,256,0.0,4.0,29,0.00,,,0.00,VWS V14.00,2013-05-21 17:04:00,
2013-05-21 13:09:00,89.1,48.7,29.89,SW,215,3.6,3.6,25,0.00,,,0.00,VWS V14.00,2013-05-21 17:09:00,
2013-05-21 13:14:00,90.3,50.8,29.89,NNW,338,2.7,3.6,26,0.00,,,0.00,VWS V14.00,2013-05-21 17:14:00,
2013-05-21 13:19:00,89.6,51.2,29.89,SW,225,3.6,4.0,27,0.00,,,0.00,VWS V14.00,2013-05-21 17:19:00,
2013-05-21 13:24:00,89.8,51.4,29.89,SW,228,2.2,5.4,27,0.00,,,0.00,VWS V14.00,2013-05-21 17:24:00,
2013-05-21 13:29:00,91.4,48.4,29.89,North,2,0.0,3.6,23,0.00,,,0.00,VWS V14.00,2013-05-21 17:29:00,
2013-05-21 13:34:00,92.3,50.3,29.89,ESE,108,2.7,2.7,24,0.00,,,0.00,VWS V14.00,2013-05-21 17:34:00,
2013-05-21 13:39:00,91.4,47.2,29.89,NW,321,2.2,3.1,22,0.00,,,0.00,VWS V14.00,2013-05-21 17:39:00,
2013-05-21 13:44:00,91.4,51.7,29.89,SW,215,3.6,4.5,26,0.00,,,0.00,VWS V14.00,2013-05-21 17:44:00,
2013-05-21 13:49:00,91.4,47.2,29.89,NNE,32,0.0,5.4,22,0.00,,,0.00,VWS V14.00,2013-05-21 17:49:00,
2013-05-21 13:54:00,90.9,46.8,29.89,North,353,0.0,2.2,22,0.00,,,0.00,VWS V14.00,2013-05-21 17:54:00,
2013-05-21 13:59:00,90.0,46.1,29.89,North,353,2.7,3.6,22,0.00,,,0.00,VWS V14.00,2013-05-21 17:59:00,
2013-05-21 14:05:00,89.4,47.9,29.89,North,353,2.2,2.2,24,0.00,,,0.00,VWS V14.00,2013-05-21 18:05:00,
2013-05-21 14:10:00,90.3,49.8,29.89,North,349,3.1,3.1,25,0.00,,,0.00,VWS V14.00,2013-05-21 18:10:00,
2013-05-21 14:15:00,91.8,53.1,29.89,North,0,3.6,4.9,27,0.00,,,0.00,VWS V14.00,2013-05-21 18:15:00,
2013-05-21 14:20:00,92.7,45.8,29.89,North,357,3.6,4.9,20,0.00,,,0.00,VWS V14.00,2013-05-21 18:20:00,
2013-05-21 14:25:00,92.7,44.4,29.89,North,7,4.0,4.0,19,0.00,,,0.00,VWS V14.00,2013-05-21 18:25:00,
2013-05-21 14:30:00,92.7,45.8,29.89,North,0,3.6,7.6,20,0.00,,,0.00,VWS V14.00,2013-05-21 18:30:00,
2013-05-21 14:35:00,93.2,44.9,29.89,North,8,0.0,6.3,19,0.00,,,0.00,VWS V14.00,2013-05-21 18:35:00,
2013-05-21 14:40:00,92.8,45.9,29.89,SSW,207,5.4,5.4,20,0.00,,,0.00,VWS V14.00,2013-05-21 18:40:00,
2013-05-21 14:45:00,92.1,45.3,29.89,SSW,205,3.1,6.3,20,0.00,,,0.00,VWS V14.00,2013-05-21 18:45:00,
2013-05-21 14:50:00,91.2,47.1,29.89,SSW,201,0.0,0.0,22,0.00,,,0.00,VWS V14.00,2013-05-21 18:50:00,
2013-05-21 14:55:00,91.4,46.0,29.89,SSW,201,0.0,2.2,21,0.00,,,0.00,VWS V14.00,2013-05-21 18:55:00,
2013-05-21 15:00:00,92.5,48.2,29.89,SE,143,0.0,0.0,22,0.00,,,0.00,VWS V14.00,2013-05-21 19:00:00,
2013-05-21 15:05:00,93.9,45.4,29.89,WSW,238,5.4,5.4,19,0.00,,,0.00,VWS V14.00,2013-05-21 19:05:00,
2013-05-21 15:10:00,94.6,47.4,29.89,SW,214,0.0,0.0,20,0.00,,,0.00,VWS V14.00,2013-05-21 19:10:00,
2013-05-21 15:16:00,94.6,44.6,29.89,WSW,239,0.0,0.0,18,0.00,,,0.00,VWS V14.00,2013-05-21 19:16:00,
2013-05-21 15:21:00,95.4,43.7,29.89,NNW,340,2.2,4.5,17,0.00,,,0.00,VWS V14.00,2013-05-21 19:21:00,
2013-05-21 15:26:00,95.0,43.4,29.89,North,1,2.2,3.6,17,0.00,,,0.00,VWS V14.00,2013-05-21 19:26:00,
2013-05-21 15:31:00,95.4,43.7,29.89,NNW,348,7.6,7.6,17,0.00,,,0.00,VWS V14.00,2013-05-21 19:31:00,
2013-05-21 15:36:00,92.7,43.0,29.89,WSW,254,2.7,5.4,18,0.00,,,0.00,VWS V14.00,2013-05-21 19:36:00,
2013-05-21 15:41:00,91.9,43.8,29.89,North,2,0.0,0.0,19,0.00,,,0.00,VWS V14.00,2013-05-21 19:41:00,
2013-05-21 15:46:00,94.5,44.5,29.89,ENE,66,0.0,3.1,18,0.00,,,0.00,VWS V14.00,2013-05-21 19:46:00,
2013-05-21 15:51:00,96.1,44.3,29.89,NE,35,2.2,2.2,17,0.00,,,0.00,VWS V14.00,2013-05-21 19:51:00,
2013-05-21 15:56:00,95.5,43.8,29.89,North,1,4.5,4.5,17,0.00,,,0.00,VWS V14.00,2013-05-21 19:56:00,
2013-05-21 16:01:00,96.1,42.7,29.89,NNW,342,5.8,8.3,16,0.00,,,0.00,VWS V14.00,2013-05-21 20:01:00,
2013-05-21 16:06:00,96.1,45.8,29.89,ENE,68,0.0,0.0,18,0.00,,,0.00,VWS V14.00,2013-05-21 20:06:00,
2013-05-21 16:11:00,96.3,42.8,29.89,ESE,122,2.7,3.6,16,0.00,,,0.00,VWS V14.00,2013-05-21 20:11:00,
2013-05-21 16:17:00,93.7,42.4,29.89,ESE,104,3.1,3.6,17,0.00,,,0.00,VWS V14.00,2013-05-21 20:17:00,
2013-05-21 16:22:00,92.7,41.5,29.89,NE,56,6.3,6.3,17,0.00,,,0.00,VWS V14.00,2013-05-21 20:22:00,
2013-05-21 16:27:00,93.2,42.0,29.89,SSW,208,4.0,4.0,17,0.00,,,0.00,VWS V14.00,2013-05-21 20:27:00,
2013-05-21 16:32:00,92.3,41.2,29.89,ESE,112,3.6,3.6,17,0.00,,,0.00,VWS V14.00,2013-05-21 20:32:00,
2013-05-21 16:37:00,90.7,41.4,29.89,East,92,0.0,2.7,18,0.00,,,0.00,VWS V14.00,2013-05-21 20:37:00,
2013-05-21 16:42:00,89.4,41.8,29.89,ESE,109,2.7,3.6,19,0.00,,,0.00,VWS V14.00,2013-05-21 20:42:00,
2013-05-21 16:47:00,90.1,43.7,29.89,NNE,29,2.7,3.6,20,0.00,,,0.00,VWS V14.00,2013-05-21 20:47:00,
2013-05-21 16:52:00,88.5,50.3,29.89,ESE,120,0.0,2.2,27,0.00,,,0.00,VWS V14.00,2013-05-21 20:52:00,
2013-05-21 16:57:00,86.0,49.1,29.89,ESE,113,0.0,3.1,28,0.00,,,0.00,VWS V14.00,2013-05-21 20:57:00,
2013-05-21 17:02:00,83.7,49.0,29.89,ESE,116,3.6,3.6,30,0.00,,,0.00,VWS V14.00,2013-05-21 21:02:00,
2013-05-21 17:07:00,82.2,49.5,29.89,SE,145,4.0,4.0,32,0.00,,,0.00,VWS V14.00,2013-05-21 21:07:00,
2013-05-21 17:12:00,81.3,47.8,29.89,SE,143,4.0,4.0,31,0.00,,,0.00,VWS V14.00,2013-05-21 21:12:00,
2013-05-21 17:18:00,80.1,46.7,29.89,SE,135,3.6,5.4,31,0.00,,,0.00,VWS V14.00,2013-05-21 21:18:00,
2013-05-21 17:23:00,78.8,46.5,29.89,SE,141,6.3,6.3,32,0.00,,,0.00,VWS V14.00,2013-05-21 21:23:00,
2013-05-21 17:28:00,78.1,47.5,29.89,SE,146,0.0,0.0,34,0.00,,,0.00,VWS V14.00,2013-05-21 21:28:00,
2013-05-21 17:33:00,77.4,48.3,29.89,SE,130,0.0,3.6,36,0.00,,,0.00,VWS V14.00,2013-05-21 21:33:00,
2013-05-21 17:38:00,77.0,48.8,29.89,SW,224,2.2,3.1,37,0.00,,,0.00,VWS V14.00,2013-05-21 21:38:00,
2013-05-21 17:43:00,76.3,50.2,29.89,SE,133,3.1,3.1,40,0.00,,,0.00,VWS V14.00,2013-05-21 21:43:00,
2013-05-21 17:48:00,75.7,50.4,29.89,SE,141,2.7,3.1,41,0.00,,,0.00,VWS V14.00,2013-05-21 21:48:00,
2013-05-21 17:53:00,75.6,50.9,29.89,SE,129,0.0,0.0,42,0.00,,,0.00,VWS V14.00,2013-05-21 21:53:00,
2013-05-21 17:58:00,75.2,50.6,29.89,SSE,148,3.1,3.1,42,0.00,,,0.00,VWS V14.00,2013-05-21 21:58:00,
2013-05-21 18:03:00,75.0,51.0,29.89,ESE,119,2.7,4.0,43,0.00,,,0.00,VWS V14.00,2013-05-21 22:03:00,
2013-05-21 18:08:00,74.8,50.9,29.89,SE,141,0.0,0.0,43,0.00,,,0.00,VWS V14.00,2013-05-21 22:08:00,
2013-05-21 18:13:00,74.5,50.5,29.89,WSW,251,0.0,0.0,43,0.00,,,0.00,VWS V14.00,2013-05-21 22:13:00,
2013-05-21 18:18:00,74.3,50.4,29.89,ESE,107,0.0,0.0,43,0.00,,,0.00,VWS V14.00,2013-05-21 22:18:00,
2013-05-21 18:24:00,74.3,51.0,29.89,SSE,153,0.0,0.0,44,0.00,,,0.00,VWS V14.00,2013-05-21 22:24:00,
2013-05-21 18:29:00,73.9,50.7,29.89,SE,128,0.0,0.0,44,0.00,,,0.00,VWS V14.00,2013-05-21 22:29:00,
2013-05-21 18:34:00,73.9,50.7,29.89,SSE,163,0.0,2.2,44,0.00,,,0.00,VWS V14.00,2013-05-21 22:34:00,
2013-05-21 18:39:00,73.8,50.5,29.89,SE,128,0.0,0.0,44,0.00,,,0.00,VWS V14.00,2013-05-21 22:39:00,
2013-05-21 18:44:00,73.6,51.0,29.89,SSE,150,0.0,3.6,45,0.00,,,0.00,VWS V14.00,2013-05-21 22:44:00,
2013-05-21 18:49:00,73.6,51.0,29.89,ESE,114,0.0,0.0,45,0.00,,,0.00,VWS V14.00,2013-05-21 22:49:00,
2013-05-21 18:54:00,73.6,51.5,29.89,SSE,151,0.0,3.1,46,0.00,,,0.00,VWS V14.00,2013-05-21 22:54:00,
2013-05-21 18:59:00,73.6,52.1,29.89,SSE,150,0.0,0.0,47,0.00,,,0.00,VWS V14.00,2013-05-21 22:59:00,
2013-05-21 19:04:00,73.4,52.5,29.89,SW,226,0.0,0.0,48,0.00,,,0.00,VWS V14.00,2013-05-21 23:04:00,
2013-05-21 19:09:00,73.2,52.9,29.89,SW,226,0.0,0.0,49,0.00,,,0.00,VWS V14.00,2013-05-21 23:09:00,
2013-05-21 19:14:00,73.2,54.0,29.89,SSE,168,0.0,0.0,51,0.00,,,0.00,VWS V14.00,2013-05-21 23:14:00,
2013-05-21 19:19:00,72.9,54.2,29.89,West,266,0.0,0.0,52,0.00,,,0.00,VWS V14.00,2013-05-21 23:19:00,
2013-05-21 19:24:00,72.7,54.6,29.89,SW,236,0.0,0.0,53,0.00,,,0.00,VWS V14.00,2013-05-21 23:24:00,
2013-05-21 19:29:00,72.5,54.9,29.89,SW,236,0.0,0.0,54,0.00,,,0.00,VWS V14.00,2013-05-21 23:29:00,
2013-05-21 19:34:00,72.5,54.9,29.89,SW,220,4.0,4.0,54,0.00,,,0.00,VWS V14.00,2013-05-21 23:34:00,
2013-05-21 19:40:00,72.3,55.8,29.89,SW,215,2.7,4.0,56,0.00,,,0.00,VWS V14.00,2013-05-21 23:40:00,
2013-05-21 19:45:00,72.1,55.6,29.89,SE,136,0.0,0.0,56,0.00,,,0.00,VWS V14.00,2013-05-21 23:45:00,
2013-05-21 19:50:00,72.1,55.1,29.89,ESE,106,3.1,3.1,55,0.00,,,0.00,VWS V14.00,2013-05-21 23:50:00,
2013-05-21 19:55:00,72.0,55.4,29.89,ESE,106,0.0,0.0,56,0.00,,,0.00,VWS V14.00,2013-05-21 23:55:00,
2013-05-21 20:00:00,72.0,55.4,29.89,SW,234,0.0,0.0,56,0.00,,,0.00,VWS V14.00,2013-05-22 00:00:00,
2013-05-21 20:05:00,71.8,55.3,29.89,SW,230,0.0,0.0,56,0.00,,,0.00,VWS V14.00,2013-05-22 00:05:00,
2013-05-21 20:10:00,71.6,55.1,29.89,WSW,240,0.0,3.6,56,0.00,,,0.00,VWS V14.00,2013-05-22 00:10:00,
2013-05-21 20:15:00,71.4,55.4,29.89,WSW,240,0.0,0.0,57,0.00,,,0.00,VWS V14.00,2013-05-22 00:15:00,
2013-05-21 20:20:00,71.4,54.9,29.89,WSW,239,0.0,0.0,56,0.00,,,0.00,VWS V14.00,2013-05-22 00:20:00,
2013-05-21 20:25:00,71.2,54.3,29.89,WSW,255,0.0,0.0,55,0.00,,,0.00,VWS V14.00,2013-05-22 00:25:00,
2013-05-21 20:30:00,71.1,54.1,29.89,SSW,213,0.0,0.0,55,0.00,,,0.00,VWS V14.00,2013-05-22 00:30:00,
2013-05-21 20:35:00,71.1,54.1,29.89,SW,217,0.0,4.0,55,0.00,,,0.00,VWS V14.00,2013-05-22 00:35:00,
2013-05-21 20:40:00,70.9,54.4,29.89,SW,217,0.0,0.0,56,0.00,,,0.00,VWS V14.00,2013-05-22 00:40:00,
2013-05-21 20:45:00,70.9,54.4,29.89,SW,217,0.0,0.0,56,0.00,,,0.00,VWS V14.00,2013-05-22 00:45:00,
2013-05-21 20:50:00,70.9,54.4,29.89,SW,217,0.0,0.0,56,0.00,,,0.00,VWS V14.00,2013-05-22 00:50:00,
2013-05-21 20:55:00,70.9,54.4,29.89,SW,217,0.0,0.0,56,0.00,,,0.00,VWS V14.00,2013-05-22 00:55:00,
2013-05-21 21:00:00,70.9,54.4,29.89,SW,217,0.0,0.0,56,0.00,,,0.00,VWS V14.00,2013-05-22 01:00:00,
2013-05-21 21:05:00,70.7,54.2,29.89,SW,217,0.0,0.0,56,0.00,,,0.00,VWS V14.00,2013-05-22 01:05:00,
2013-05-21 21:11:00,70.5,54.1,29.89,SW,217,0.0,0.0,56,0.00,,,0.00,VWS V14.00,2013-05-22 01:11:00,
2013-05-21 21:16:00,70.5,54.1,29.89,SW,217,0.0,0.0,56,0.00,,,0.00,VWS V14.00,2013-05-22 01:16:00,
2013-05-21 21:21:00,70.5,54.1,29.89,SW,217,0.0,0.0,56,0.00,,,0.00,VWS V14.00,2013-05-22 01:21:00,
2013-05-21 21:26:00,70.5,54.1,29.89,SW,217,0.0,0.0,56,0.00,,,0.00,VWS V14.00,2013-05-22 01:26:00,
2013-05-21 21:31:00,70.3,53.9,29.89,SW,217,0.0,0.0,56,0.00,,,0.00,VWS V14.00,2013-05-22 01:31:00,
2013-05-21 21:36:00,70.3,53.9,29.89,SW,217,0.0,0.0,56,0.00,,,0.00,VWS V14.00,2013-05-22 01:36:00,
2013-05-21 21:41:00,70.3,53.9,29.89,SW,217,0.0,0.0,56,0.00,,,0.00,VWS V14.00,2013-05-22 01:41:00,
2013-05-21 21:46:00,70.2,54.2,29.89,SW,217,0.0,0.0,57,0.00,,,0.00,VWS V14.00,2013-05-22 01:46:00,
2013-05-21 21:51:00,70.2,54.7,29.89,SW,217,0.0,0.0,58,0.00,,,0.00,VWS V14.00,2013-05-22 01:51:00,
2013-05-21 21:56:00,69.8,54.4,29.89,SW,217,0.0,0.0,58,0.00,,,0.00,VWS V14.00,2013-05-22 01:56:00,
2013-05-21 22:01:00,69.8,54.8,29.89,SW,217,0.0,0.0,59,0.00,,,0.00,VWS V14.00,2013-05-22 02:01:00,
2013-05-21 22:06:00,69.6,55.1,29.89,SW,217,0.0,0.0,60,0.00,,,0.00,VWS V14.00,2013-05-22 02:06:00,
2013-05-21 22:11:00,69.4,55.0,29.89,SW,217,0.0,0.0,60,0.00,,,0.00,VWS V14.00,2013-05-22 02:11:00,
2013-05-21 22:16:00,69.4,55.4,29.89,SW,217,0.0,0.0,61,0.00,,,0.00,VWS V14.00,2013-05-22 02:16:00,
2013-05-21 22:22:00,69.4,55.4,29.89,SW,217,0.0,0.0,61,0.00,,,0.00,VWS V14.00,2013-05-22 02:22:00,
2013-05-21 22:27:00,69.4,55.4,29.89,SW,217,0.0,0.0,61,0.00,,,0.00,VWS V14.00,2013-05-22 02:27:00,
2013-05-21 22:32:00,69.3,56.1,29.89,SW,217,0.0,0.0,63,0.00,,,0.00,VWS V14.00,2013-05-22 02:32:00,
2013-05-21 22:37:00,69.1,56.4,29.89,SW,217,0.0,0.0,64,0.00,,,0.00,VWS V14.00,2013-05-22 02:37:00,
2013-05-21 22:42:00,69.1,56.4,29.89,SW,217,0.0,0.0,64,0.00,,,0.00,VWS V14.00,2013-05-22 02:42:00,
2013-05-21 22:47:00,68.9,56.2,29.89,SW,217,0.0,0.0,64,0.00,,,0.00,VWS V14.00,2013-05-22 02:47:00,
2013-05-21 22:52:00,68.9,56.2,29.89,SW,217,0.0,0.0,64,0.00,,,0.00,VWS V14.00,2013-05-22 02:52:00,
2013-05-21 22:57:00,68.9,56.2,29.89,SW,217,0.0,0.0,64,0.00,,,0.00,VWS V14.00,2013-05-22 02:57:00,
2013-05-21 23:02:00,68.7,56.1,29.89,SW,217,0.0,0.0,64,0.00,,,0.00,VWS V14.00,2013-05-22 03:02:00,
2013-05-21 23:07:00,68.7,56.5,29.89,SW,217,0.0,0.0,65,0.00,,,0.00,VWS V14.00,2013-05-22 03:07:00,
2013-05-21 23:12:00,68.5,56.7,29.89,SW,217,0.0,0.0,66,0.00,,,0.00,VWS V14.00,2013-05-22 03:12:00,
2013-05-21 23:17:00,68.4,57.0,29.89,SW,217,0.0,0.0,67,0.00,,,0.00,VWS V14.00,2013-05-22 03:17:00,
2013-05-21 23:23:00,68.4,57.0,29.89,SW,217,0.0,0.0,67,0.00,,,0.00,VWS V14.00,2013-05-22 03:23:00,
2013-05-21 23:28:00,68.4,57.0,29.89,SW,217,0.0,0.0,67,0.00,,,0.00,VWS V14.00,2013-05-22 03:28:00,
2013-05-21 23:33:00,68.4,57.0,29.89,SW,217,0.0,0.0,67,0.00,,,0.00,VWS V14.00,2013-05-22 03:33:00,
2013-05-21 23:38:00,68.4,57.0,29.89,SW,217,0.0,0.0,67,0.00,,,0.00,VWS V14.00,2013-05-22 03:38:00,
2013-05-21 23:43:00,68.4,57.0,29.89,SW,217,0.0,0.0,67,0.00,,,0.00,VWS V14.00,2013-05-22 03:43:00,
2013-05-21 23:48:00,68.4,57.0,29.89,SW,217,0.0,0.0,67,0.00,,,0.00,VWS V14.00,2013-05-22 03:48:00,
2013-05-21 23:53:00,68.4,57.0,29.89,SW,217,0.0,0.0,67,0.00,,,0.00,VWS V14.00,2013-05-22 03:53:00,
2013-05-21 23:58:00,68.2,56.8,29.89,SW,217,0.0,0.0,67,0.00,,,0.00,VWS V14.00,2013-05-22 03:58:00,